createdAt,value
2022-08-07T00:00:34.137Z,8.668556
2022-08-07T00:01:43.669Z,8.668650
2022-08-07T00:02:39.747Z,8.668676
2022-08-07T00:03:36.915Z,8.668667
2022-08-07T00:04:33.087Z,8.668600
2022-08-07T00:05:33.021Z,8.668588
2022-08-07T00:06:33.787Z,8.668509
2022-08-07T00:07:40.854Z,8.668499
2022-08-07T00:08:34.002Z,8.668653
2022-08-07T00:09:35.674Z,8.668635
2022-08-07T00:10:32.930Z,8.668517
2022-08-07T00:11:33.250Z,8.668479
2022-08-07T00:12:32.923Z,8.668489
2022-08-07T00:13:32.868Z,8.668538
2022-08-07T00:14:32.845Z,8.668566
2022-08-07T00:15:38.219Z,8.668539
2022-08-07T00:16:33.798Z,8.668564
2022-08-07T00:17:35.201Z,8.668533
2022-08-07T00:18:32.769Z,8.668597
2022-08-07T00:20:00.109Z,8.668561
2022-08-07T00:20:34.270Z,8.668501
2022-08-07T00:21:55.384Z,8.668484
2022-08-07T00:22:35.546Z,8.668498
2022-08-07T00:23:32.703Z,8.668580
2022-08-07T00:24:32.730Z,8.668549
2022-08-07T00:25:37.475Z,8.668491
2022-08-07T00:26:59.113Z,8.668591
2022-08-07T00:27:51.876Z,8.668550
2022-08-07T00:28:34.446Z,8.668577
2022-08-07T00:29:33.568Z,8.668471
2022-08-07T00:30:32.585Z,8.668349
2022-08-07T00:31:37.954Z,8.668454
2022-08-07T00:32:34.956Z,8.668427
2022-08-07T00:33:32.752Z,8.668631
2022-08-07T00:34:32.484Z,8.668612
2022-08-07T00:35:32.459Z,8.668570
2022-08-07T00:36:32.458Z,8.668596
2022-08-07T00:37:47.840Z,8.668429
2022-08-07T00:38:33.479Z,8.668533
2022-08-07T00:39:32.415Z,8.668548
2022-08-07T00:40:39.960Z,8.668554
2022-08-07T00:41:33.358Z,8.668525
2022-08-07T00:42:32.385Z,8.668530
2022-08-07T00:44:00.253Z,8.668580
2022-08-07T00:44:33.618Z,8.668572
2022-08-07T00:45:32.306Z,8.668597
2022-08-07T00:46:32.988Z,8.668612
2022-08-07T00:48:07.468Z,8.668615
2022-08-07T00:48:33.210Z,8.668643
2022-08-07T00:50:21.252Z,8.668664
2022-08-07T00:50:43.464Z,8.668685
2022-08-07T00:51:56.787Z,8.668658
2022-08-07T00:52:33.400Z,8.668649
2022-08-07T00:53:38.878Z,8.668620
2022-08-07T00:54:33.165Z,8.668632
2022-08-07T00:56:00.537Z,8.668591
2022-08-07T00:56:33.868Z,8.668549
2022-08-07T00:57:34.005Z,8.668535
2022-08-07T00:58:32.077Z,8.668515
2022-08-07T00:59:35.426Z,8.668554
2022-08-07T01:00:32.069Z,8.668573
2022-08-07T01:01:41.571Z,8.668610
2022-08-07T01:02:33.043Z,8.668603
2022-08-07T01:03:56.861Z,8.668545
2022-08-07T01:04:34.656Z,8.668530
2022-08-07T01:05:32.926Z,8.668611
2022-08-07T01:06:31.914Z,8.668612
2022-08-07T01:07:32.015Z,8.668582
2022-08-07T01:08:31.858Z,8.668542
2022-08-07T01:10:05.124Z,8.668617
2022-08-07T01:10:32.775Z,8.668511
2022-08-07T01:12:28.076Z,8.668500
2022-08-07T01:12:32.719Z,8.668565
2022-08-07T01:13:35.142Z,8.668594
2022-08-07T01:14:31.726Z,8.668501
2022-08-07T01:15:35.805Z,8.668542
2022-08-07T01:16:32.696Z,8.668591
2022-08-07T01:17:31.688Z,8.668627
2022-08-07T01:18:31.684Z,8.668570
2022-08-07T01:19:32.590Z,8.668582
2022-08-07T01:20:31.665Z,8.668650
2022-08-07T01:21:31.645Z,8.668640
2022-08-07T01:22:32.594Z,8.668669
2022-08-07T01:23:39.447Z,8.668652
2022-08-07T01:24:32.616Z,8.668629
2022-08-07T01:25:53.778Z,8.668652
2022-08-07T01:26:32.589Z,8.668643
2022-08-07T01:27:32.445Z,8.668638
2022-08-07T01:28:31.495Z,8.668633
2022-08-07T01:29:34.198Z,8.668538
2022-08-07T01:30:31.457Z,8.668618
2022-08-07T01:31:42.798Z,8.668588
2022-08-07T01:32:32.416Z,8.668565
2022-08-07T01:33:56.355Z,8.668588
2022-08-07T01:34:32.393Z,8.668624
2022-08-07T01:35:36.913Z,8.668627
2022-08-07T01:36:36.396Z,8.668617
2022-08-07T01:37:33.798Z,8.668640
2022-08-07T01:38:31.320Z,8.668572
2022-08-07T01:39:41.247Z,8.668569
2022-08-07T01:40:32.290Z,8.668612
2022-08-07T01:41:31.237Z,8.668591
2022-08-07T01:42:40.200Z,8.668591
2022-08-07T01:43:34.445Z,8.668636
2022-08-07T01:44:32.224Z,8.668616
2022-08-07T01:45:36.427Z,8.668633
2022-08-07T01:46:32.195Z,8.668690
2022-08-07T01:48:27.375Z,8.668591
2022-08-07T01:48:32.532Z,8.668572
2022-08-07T01:49:32.017Z,8.668525
2022-08-07T01:50:31.114Z,8.668499
2022-08-07T01:52:01.863Z,8.668586
2022-08-07T01:52:32.022Z,8.668479
2022-08-07T01:54:08.510Z,8.668519
2022-08-07T01:54:33.403Z,8.668485
2022-08-07T01:55:33.421Z,8.668475
2022-08-07T01:56:31.014Z,8.668512
2022-08-07T01:57:31.025Z,8.668529
2022-08-07T01:58:33.298Z,8.668541
2022-08-07T01:59:31.567Z,8.668536
2022-08-07T02:00:30.925Z,8.668534
2022-08-07T02:01:59.626Z,8.668556
2022-08-07T02:02:32.803Z,8.668552
2022-08-07T02:03:42.866Z,8.668575
2022-08-07T02:04:31.948Z,8.668513
2022-08-07T02:05:48.207Z,8.668474
2022-08-07T02:06:32.532Z,8.668581
2022-08-07T02:07:44.780Z,8.668590
2022-08-07T02:08:31.834Z,8.668555
2022-08-07T02:09:37.467Z,8.668573
2022-08-07T02:10:31.743Z,8.668556
2022-08-07T02:12:04.110Z,8.668568
2022-08-07T02:12:31.646Z,8.668588
2022-08-07T02:13:56.786Z,8.668556
2022-08-07T02:14:36.659Z,8.668575
2022-08-07T02:15:31.698Z,8.668572
2022-08-07T02:16:33.616Z,8.668593
2022-08-07T02:17:34.018Z,8.668585
2022-08-07T02:18:30.651Z,8.668616
2022-08-07T02:20:04.212Z,8.668599
2022-08-07T02:20:31.529Z,8.668595
2022-08-07T02:21:55.497Z,8.668608
2022-08-07T02:22:31.532Z,8.668571
2022-08-07T02:23:30.512Z,8.668557
2022-08-07T02:24:31.505Z,8.668591
2022-08-07T02:26:10.658Z,8.668573
2022-08-07T02:26:34.425Z,8.668528
2022-08-07T02:27:34.401Z,8.668528
2022-08-07T02:28:30.468Z,8.668577
2022-08-07T02:29:30.501Z,8.668539
2022-08-07T02:30:30.395Z,8.668542
2022-08-07T02:31:30.365Z,8.668581
2022-08-07T02:32:30.404Z,8.668608
2022-08-07T02:33:32.891Z,8.668631
2022-08-07T02:34:31.395Z,8.668650
2022-08-07T02:36:29.914Z,8.668571
2022-08-07T02:36:32.408Z,8.668577
2022-08-07T02:37:34.252Z,8.668612
2022-08-07T02:38:31.788Z,8.668612
2022-08-07T02:39:43.999Z,8.668603
2022-08-07T02:40:35.021Z,8.668560
2022-08-07T02:41:37.082Z,8.668599
2022-08-07T02:42:31.169Z,8.668587
2022-08-07T02:43:30.143Z,8.668625
2022-08-07T02:44:34.205Z,8.668603
2022-08-07T02:46:00.917Z,8.668598
2022-08-07T02:46:31.031Z,8.668653
2022-08-07T02:47:35.108Z,8.668638
2022-08-07T02:48:31.115Z,8.668634
2022-08-07T02:49:58.676Z,8.668578
2022-08-07T02:50:31.041Z,8.668572
2022-08-07T02:51:42.461Z,8.668612
2022-08-07T02:52:31.318Z,8.668624
2022-08-07T02:53:29.992Z,8.668608
2022-08-07T02:54:29.960Z,8.668584
2022-08-07T02:56:03.235Z,8.668546
2022-08-07T02:56:31.481Z,8.668568
2022-08-07T02:57:31.082Z,8.668620
2022-08-07T02:58:33.240Z,8.668568
2022-08-07T02:59:29.851Z,8.668581
2022-08-07T03:00:30.222Z,8.668590
2022-08-07T03:01:35.456Z,8.668641
2022-08-07T03:02:30.809Z,8.668644
2022-08-07T03:03:42.186Z,8.668643
2022-08-07T03:04:30.770Z,8.668749
2022-08-07T03:05:35.738Z,8.668659
2022-08-07T03:06:33.095Z,8.668530
2022-08-07T03:08:05.030Z,8.668495
2022-08-07T03:08:30.633Z,8.668548
2022-08-07T03:09:43.928Z,8.668568
2022-08-07T03:10:30.659Z,8.668550
2022-08-07T03:11:29.653Z,8.668543
2022-08-07T03:12:30.902Z,8.668588
2022-08-07T03:13:29.678Z,8.668572
2022-08-07T03:14:30.599Z,8.668505
2022-08-07T03:15:47.855Z,8.668566
2022-08-07T03:16:30.566Z,8.668467
2022-08-07T03:17:29.818Z,8.668548
2022-08-07T03:18:30.543Z,8.668563
2022-08-07T03:19:36.887Z,8.668534
2022-08-07T03:20:30.497Z,8.668511
2022-08-07T03:21:33.112Z,8.668570
2022-08-07T03:22:30.438Z,8.668443
2022-08-07T03:23:33.904Z,8.668365
2022-08-07T03:24:30.334Z,8.668475
2022-08-07T03:25:32.553Z,8.668589
2022-08-07T03:26:30.366Z,8.668571
2022-08-07T03:27:29.939Z,8.668560
2022-08-07T03:28:38.285Z,8.668476
2022-08-07T03:29:30.319Z,8.668548
2022-08-07T03:30:29.292Z,8.668528
2022-08-07T03:31:42.262Z,8.668531
2022-08-07T03:32:30.259Z,8.668443
2022-08-07T03:33:32.289Z,8.668431
2022-08-07T03:34:30.227Z,8.668487
2022-08-07T03:35:37.999Z,8.668518
2022-08-07T03:36:30.183Z,8.668587
2022-08-07T03:37:29.302Z,8.668605
2022-08-07T03:38:29.611Z,8.668600
2022-08-07T03:39:56.550Z,8.668542
2022-08-07T03:40:31.053Z,8.668541
2022-08-07T03:41:42.349Z,8.668570
2022-08-07T03:42:30.159Z,8.668493
2022-08-07T03:43:32.251Z,8.668572
2022-08-07T03:44:32.021Z,8.668619
2022-08-07T03:45:31.529Z,8.668599
2022-08-07T03:46:29.020Z,8.668621
2022-08-07T03:47:29.578Z,8.668542
2022-08-07T03:48:29.976Z,8.668577
2022-08-07T03:49:29.067Z,8.668531
2022-08-07T03:50:29.067Z,8.668559
2022-08-07T03:51:30.979Z,8.668612
2022-08-07T03:52:29.903Z,8.668614
2022-08-07T03:53:50.149Z,8.668619
2022-08-07T03:54:36.255Z,8.668611
2022-08-07T03:55:57.965Z,8.668620
2022-08-07T03:56:32.670Z,8.668632
2022-08-07T03:58:33.158Z,8.668598
2022-08-07T03:59:05.689Z,8.668645
2022-08-07T03:59:29.706Z,8.668627
2022-08-07T04:00:29.408Z,8.668604
2022-08-07T04:01:28.822Z,8.668571
2022-08-07T04:02:28.718Z,8.668624
2022-08-07T04:03:28.704Z,8.668582
2022-08-07T04:04:32.817Z,8.668604
2022-08-07T04:05:40.272Z,8.668613
2022-08-07T04:06:37.118Z,8.668639
2022-08-07T04:07:41.684Z,8.668625
2022-08-07T04:08:29.627Z,8.668625
2022-08-07T04:09:44.579Z,8.668588
2022-08-07T04:10:29.613Z,8.668639
2022-08-07T04:12:23.804Z,8.668676
2022-08-07T04:12:29.503Z,8.668627
2022-08-07T04:13:28.521Z,8.668583
2022-08-07T04:14:38.772Z,8.668576
2022-08-07T04:15:29.538Z,8.668563
2022-08-07T04:16:31.183Z,8.668586
2022-08-07T04:18:56.445Z,8.668501
2022-08-07T04:18:57.653Z,8.668496
2022-08-07T04:19:51.009Z,8.668518
2022-08-07T04:20:29.436Z,8.668550
2022-08-07T04:21:31.215Z,8.668496
2022-08-07T04:22:29.996Z,8.668604
2022-08-07T04:23:43.457Z,8.668610
2022-08-07T04:24:34.175Z,8.668515
2022-08-07T04:25:29.577Z,8.668550
2022-08-07T04:26:28.608Z,8.668497
2022-08-07T04:27:28.361Z,8.668562
2022-08-07T04:28:29.284Z,8.668591
2022-08-07T04:29:40.317Z,8.668573
2022-08-07T04:30:43.360Z,8.668642
2022-08-07T04:31:38.383Z,8.668490
2022-08-07T04:32:34.239Z,8.668470
2022-08-07T04:33:29.341Z,8.668441
2022-08-07T04:34:33.315Z,8.668535
2022-08-07T04:35:35.331Z,8.668549
2022-08-07T04:36:29.243Z,8.668616
2022-08-07T04:37:28.828Z,8.668534
2022-08-07T04:38:28.111Z,8.668466
2022-08-07T04:39:28.152Z,8.668429
2022-08-07T04:40:30.075Z,8.668520
2022-08-07T04:41:28.222Z,8.668372
2022-08-07T04:42:28.715Z,8.668350
2022-08-07T04:44:09.689Z,8.668360
2022-08-07T04:44:28.918Z,8.668412
2022-08-07T04:46:00.285Z,8.668502
2022-08-07T04:46:34.466Z,8.668465
2022-08-07T04:47:57.086Z,8.668537
2022-08-07T04:48:28.837Z,8.668489
2022-08-07T04:49:27.889Z,8.668574
2022-08-07T04:50:27.899Z,8.668536
2022-08-07T04:51:27.870Z,8.668559
2022-08-07T04:52:27.962Z,8.668596
2022-08-07T04:54:01.379Z,8.668585
2022-08-07T04:54:30.093Z,8.668622
2022-08-07T04:58:15.138Z,8.668592
2022-08-07T04:58:16.617Z,8.668584
2022-08-07T04:58:24.118Z,8.668627
2022-08-07T04:58:47.583Z,8.668562
2022-08-07T05:00:12.531Z,8.668566
2022-08-07T05:00:30.365Z,8.668524
2022-08-07T05:01:30.814Z,8.668472
2022-08-07T05:02:27.697Z,8.668401
2022-08-07T05:04:00.438Z,8.668387
2022-08-07T05:04:28.548Z,8.668522
2022-08-07T05:05:53.890Z,8.668561
2022-08-07T05:06:28.588Z,8.668593
2022-08-07T05:07:36.702Z,8.668655
2022-08-07T05:08:59.146Z,8.668599
2022-08-07T05:09:46.045Z,8.668545
2022-08-07T05:10:28.557Z,8.668577
2022-08-07T05:11:27.689Z,8.668485
2022-08-07T05:12:30.327Z,8.668514
2022-08-07T05:14:54.376Z,8.668509
2022-08-07T05:14:55.703Z,8.668522
2022-08-07T05:15:28.350Z,8.668568
2022-08-07T05:16:27.342Z,8.668612
2022-08-07T05:17:52.123Z,8.668675
2022-08-07T05:18:29.649Z,8.668625
2022-08-07T05:19:44.088Z,8.668633
2022-08-07T05:20:28.351Z,8.668601
2022-08-07T05:21:59.055Z,8.668687
2022-08-07T05:22:28.249Z,8.668721
2022-08-07T05:23:30.942Z,8.668755
2022-08-07T05:24:30.513Z,8.668876
2022-08-07T05:26:04.140Z,8.668820
2022-08-07T05:26:28.154Z,8.668772
2022-08-07T05:28:16.072Z,8.668781
2022-08-07T05:28:28.434Z,8.668803
2022-08-07T05:29:27.093Z,8.668803
2022-08-07T05:30:32.339Z,8.668892
2022-08-07T05:31:34.549Z,8.668831
2022-08-07T05:32:28.121Z,8.668816
2022-08-07T05:33:27.043Z,8.668684
2022-08-07T05:34:27.576Z,8.668639
2022-08-07T05:35:33.879Z,8.668731
2022-08-07T05:36:30.483Z,8.668694
2022-08-07T05:37:28.284Z,8.668655
2022-08-07T05:39:00.867Z,8.668640
2022-08-07T05:40:13.549Z,8.668582
2022-08-07T05:40:28.816Z,8.668615
2022-08-07T05:42:00.369Z,8.668662
2022-08-07T05:42:33.835Z,8.668651
2022-08-07T05:44:01.255Z,8.668556
2022-08-07T05:44:29.283Z,8.668637
2022-08-07T05:45:46.135Z,8.668648
2022-08-07T05:46:29.570Z,8.668631
2022-08-07T05:47:59.942Z,8.668562
2022-08-07T05:48:27.779Z,8.668557
2022-08-07T05:49:26.733Z,8.668576
2022-08-07T05:50:26.747Z,8.668607
2022-08-07T05:51:31.847Z,8.668638
2022-08-07T05:52:32.357Z,8.668546
2022-08-07T05:54:12.272Z,8.668466
2022-08-07T05:54:31.080Z,8.668563
2022-08-07T05:56:02.367Z,8.668582
2022-08-07T05:56:30.231Z,8.668462
2022-08-07T05:57:30.199Z,8.668417
2022-08-07T05:58:36.146Z,8.668444
2022-08-07T05:59:27.653Z,8.668609
2022-08-07T06:00:26.592Z,8.668569
2022-08-07T06:01:26.646Z,8.668527
2022-08-07T06:02:29.191Z,8.668474
2022-08-07T06:03:26.499Z,8.668576
2022-08-07T06:04:30.022Z,8.668535
2022-08-07T06:05:28.439Z,8.668464
2022-08-07T06:06:29.418Z,8.668461
2022-08-07T06:08:14.612Z,8.668505
2022-08-07T06:08:30.771Z,8.668728
2022-08-07T06:10:04.035Z,8.668653
2022-08-07T06:10:27.453Z,8.668657
2022-08-07T06:11:26.449Z,8.668399
2022-08-07T06:12:31.710Z,8.668350
2022-08-07T06:14:10.583Z,8.668574
2022-08-07T06:14:28.669Z,8.668469
2022-08-07T06:15:39.101Z,8.668525
2022-08-07T06:16:28.311Z,8.668477
2022-08-07T06:17:30.622Z,8.668545
2022-08-07T06:18:27.972Z,8.668582
2022-08-07T06:19:51.952Z,8.668595
2022-08-07T06:20:50.044Z,8.668529
2022-08-07T06:22:15.515Z,8.668494
2022-08-07T06:22:27.601Z,8.668521
2022-08-07T06:24:37.791Z,8.668531
2022-08-07T06:24:38.061Z,8.668509
2022-08-07T06:25:27.076Z,8.668446
2022-08-07T06:26:27.559Z,8.668470
2022-08-07T06:27:44.489Z,8.668460
2022-08-07T06:28:27.378Z,8.668489
2022-08-07T06:29:26.031Z,8.668485
2022-08-07T06:30:35.935Z,8.668511
2022-08-07T06:31:47.220Z,8.668450
2022-08-07T06:32:29.445Z,8.668421
2022-08-07T06:33:26.957Z,8.668466
2022-08-07T06:34:29.553Z,8.668427
2022-08-07T06:35:38.970Z,8.668460
2022-08-07T06:36:27.494Z,8.668453
2022-08-07T06:37:26.989Z,8.668465
2022-08-07T06:38:28.409Z,8.668487
2022-08-07T06:40:15.649Z,8.668463
2022-08-07T06:40:32.378Z,8.668533
2022-08-07T06:42:02.383Z,8.668610
2022-08-07T06:42:34.957Z,8.668535
2022-08-07T06:43:26.860Z,8.668513
2022-08-07T06:44:26.761Z,8.668487
2022-08-07T06:45:26.734Z,8.668567
2022-08-07T06:46:35.082Z,8.668532
2022-08-07T06:47:27.138Z,8.668545
2022-08-07T06:48:25.667Z,8.668588
2022-08-07T06:49:25.760Z,8.668614
2022-08-07T06:50:25.694Z,8.668578
2022-08-07T06:51:31.198Z,8.668554
2022-08-07T06:52:31.335Z,8.668502
2022-08-07T06:55:28.140Z,8.668467
2022-08-07T06:55:32.524Z,8.668518
2022-08-07T06:55:32.640Z,8.668468
2022-08-07T06:56:26.566Z,8.668550
2022-08-07T06:57:39.364Z,8.668574
2022-08-07T06:58:27.609Z,8.668579
2022-08-07T07:00:11.856Z,8.668587
2022-08-07T07:00:26.475Z,8.668546
2022-08-07T07:01:25.583Z,8.668591
2022-08-07T07:02:48.687Z,8.668562
2022-08-07T07:03:39.838Z,8.668517
2022-08-07T07:04:27.973Z,8.668585
2022-08-07T07:06:02.600Z,8.668669
2022-08-07T07:06:26.728Z,8.668666
2022-08-07T07:07:59.567Z,8.668653
2022-08-07T07:08:26.859Z,8.668571
2022-08-07T07:09:25.429Z,8.668566
2022-08-07T07:10:26.628Z,8.668615
2022-08-07T07:12:07.442Z,8.668594
2022-08-07T07:12:31.158Z,8.668590
2022-08-07T07:13:55.480Z,8.668701
2022-08-07T07:14:26.260Z,8.668529
2022-08-07T07:15:26.502Z,8.668639
2022-08-07T07:16:27.446Z,8.668727
2022-08-07T07:17:38.933Z,8.668642
2022-08-07T07:18:47.315Z,8.668638
2022-08-07T07:19:56.263Z,8.668606
2022-08-07T07:20:26.144Z,8.668576
2022-08-07T07:21:27.247Z,8.668604
2022-08-07T07:22:35.837Z,8.668600
2022-08-07T07:24:08.909Z,8.668617
2022-08-07T07:24:26.050Z,8.668669
2022-08-07T07:26:31.598Z,8.668599
2022-08-07T07:26:32.445Z,8.668638
2022-08-07T07:27:25.978Z,8.668631
2022-08-07T07:28:42.646Z,8.668627
2022-08-07T07:29:40.434Z,8.668610
2022-08-07T07:30:32.816Z,8.668598
2022-08-07T07:31:25.931Z,8.668637
2022-08-07T07:32:24.880Z,8.668614
2022-08-07T07:33:24.994Z,8.668582
2022-08-07T07:34:30.628Z,8.668570
2022-08-07T07:35:25.879Z,8.668572
2022-08-07T07:36:32.618Z,8.668445
2022-08-07T07:37:44.496Z,8.668525
2022-08-07T07:38:25.821Z,8.668574
2022-08-07T07:39:25.497Z,8.668632
2022-08-07T07:40:26.213Z,8.668524
2022-08-07T07:41:50.468Z,8.668566
2022-08-07T07:42:32.584Z,8.668553
2022-08-07T07:43:27.504Z,8.668567
2022-08-07T07:44:26.486Z,8.668584
2022-08-07T07:46:38.539Z,8.668593
2022-08-07T07:46:50.359Z,8.668557
2022-08-07T07:47:25.690Z,8.668564
2022-08-07T07:48:36.013Z,8.668512
2022-08-07T07:50:32.692Z,8.668493
2022-08-07T07:50:35.972Z,8.668499
2022-08-07T07:51:25.625Z,8.668568
2022-08-07T07:52:24.567Z,8.668565
2022-08-07T07:53:25.752Z,8.668496
2022-08-07T07:54:24.517Z,8.668442
2022-08-07T07:55:24.595Z,8.668517
2022-08-07T07:56:30.649Z,8.668544
2022-08-07T07:57:51.901Z,8.668459
2022-08-07T07:58:25.456Z,8.668512
2022-08-07T07:59:24.585Z,8.668448
2022-08-07T08:00:31.481Z,8.668438
2022-08-07T08:02:03.108Z,8.668484
2022-08-07T08:02:33.807Z,8.668526
2022-08-07T08:04:06.080Z,8.668626
2022-08-07T08:04:25.675Z,8.668542
2022-08-07T08:05:24.390Z,8.668507
2022-08-07T08:06:25.312Z,8.668452
2022-08-07T08:07:24.415Z,8.668603
2022-08-07T08:08:34.763Z,8.668574
2022-08-07T08:09:25.257Z,8.668606
2022-08-07T08:10:37.578Z,8.668599
2022-08-07T08:11:59.986Z,8.668598
2022-08-07T08:12:50.347Z,8.668525
2022-08-07T08:13:25.187Z,8.668568
2022-08-07T08:14:26.554Z,8.668561
2022-08-07T08:15:24.278Z,8.668496
2022-08-07T08:16:25.278Z,8.668462
2022-08-07T08:18:25.094Z,8.668448
2022-08-07T08:18:36.585Z,8.668393
2022-08-07T08:20:17.708Z,8.668476
2022-08-07T08:20:31.794Z,8.668470
2022-08-07T08:21:25.051Z,8.668505
2022-08-07T08:22:32.804Z,8.668435
2022-08-07T08:23:25.357Z,8.668561
2022-08-07T08:24:45.032Z,8.668607
2022-08-07T08:25:42.943Z,8.668663
2022-08-07T08:26:25.151Z,8.668572
2022-08-07T08:27:24.041Z,8.668552
2022-08-07T08:28:38.441Z,8.668498
2022-08-07T08:29:24.915Z,8.668511
2022-08-07T08:30:24.915Z,8.668579
2022-08-07T08:31:58.609Z,8.668610
2022-08-07T08:32:25.147Z,8.668579
2022-08-07T08:33:23.989Z,8.668612
2022-08-07T08:34:27.263Z,8.668550
2022-08-07T08:35:24.806Z,8.668426
2022-08-07T08:36:25.723Z,8.668489
2022-08-07T08:37:59.865Z,8.668508
2022-08-07T08:38:29.490Z,8.668510
2022-08-07T08:39:24.749Z,8.668506
2022-08-07T08:40:28.543Z,8.668544
2022-08-07T08:41:23.708Z,8.668572
2022-08-07T08:42:25.806Z,8.668586
2022-08-07T08:43:31.964Z,8.668597
2022-08-07T08:44:29.416Z,8.668598
2022-08-07T08:45:26.748Z,8.668624
2022-08-07T08:46:25.389Z,8.668590
2022-08-07T08:47:24.992Z,8.668581
2022-08-07T08:48:23.572Z,8.668532
2022-08-07T08:49:33.351Z,8.668566
2022-08-07T08:50:35.156Z,8.668519
2022-08-07T08:51:49.633Z,8.668571
2022-08-07T08:52:24.551Z,8.668578
2022-08-07T08:53:24.493Z,8.668583
2022-08-07T08:54:24.211Z,8.668561
2022-08-07T08:55:55.018Z,8.668558
2022-08-07T08:56:24.761Z,8.668557
2022-08-07T08:57:23.516Z,8.668598
2022-08-07T08:58:28.508Z,8.668585
2022-08-07T08:59:24.516Z,8.668565
2022-08-07T09:00:23.391Z,8.668543
2022-08-07T09:01:24.480Z,8.668507
2022-08-07T09:02:36.588Z,8.668554
2022-08-07T09:03:47.762Z,8.668585
2022-08-07T09:04:26.105Z,8.668602
2022-08-07T09:05:37.280Z,8.668570
2022-08-07T09:06:24.337Z,8.668579
2022-08-07T09:07:25.143Z,8.668544
2022-08-07T09:08:24.254Z,8.668568
2022-08-07T09:09:30.122Z,8.668567
2022-08-07T09:10:24.245Z,8.668633
2022-08-07T09:11:24.272Z,8.668563
2022-08-07T09:12:31.709Z,8.668539
2022-08-07T09:13:37.014Z,8.668525
2022-08-07T09:14:24.136Z,8.668538
2022-08-07T09:16:21.513Z,8.668545
2022-08-07T09:16:30.144Z,8.668579
2022-08-07T09:17:24.078Z,8.668609
2022-08-07T09:18:23.595Z,8.668597
2022-08-07T09:19:51.000Z,8.668632
2022-08-07T09:20:35.537Z,8.668667
2022-08-07T09:21:34.458Z,8.668679
2022-08-07T09:24:28.570Z,8.668653
2022-08-07T09:24:30.924Z,8.668631
2022-08-07T09:24:33.733Z,8.668663
2022-08-07T09:25:24.329Z,8.668667
2022-08-07T09:26:22.918Z,8.668653
2022-08-07T09:27:23.079Z,8.668676
2022-08-07T09:30:01.981Z,8.668681
2022-08-07T09:30:05.237Z,8.668590
2022-08-07T09:30:25.474Z,8.668567
2022-08-07T09:31:22.909Z,8.668646
2022-08-07T09:32:22.789Z,8.668634
2022-08-07T09:33:41.213Z,8.668624
2022-08-07T09:34:23.754Z,8.668695
2022-08-07T09:36:04.205Z,8.668698
2022-08-07T09:36:27.096Z,8.668678
2022-08-07T09:37:47.962Z,8.668704
2022-08-07T09:38:23.697Z,8.668573
2022-08-07T09:39:52.871Z,8.668541
2022-08-07T09:40:23.741Z,8.668526
2022-08-07T09:41:22.740Z,8.668589
2022-08-07T09:42:24.932Z,8.668529
2022-08-07T09:43:40.363Z,8.668662
2022-08-07T09:44:36.171Z,8.668644
2022-08-07T09:47:23.711Z,8.668668
2022-08-07T09:47:24.255Z,8.668628
2022-08-07T09:47:50.138Z,8.668593
2022-08-07T09:48:29.885Z,8.668508
2022-08-07T09:50:02.068Z,8.668546
2022-08-07T09:50:23.493Z,8.668668
2022-08-07T09:52:10.806Z,8.668633
2022-08-07T09:52:34.273Z,8.668653
2022-08-07T09:53:23.445Z,8.668686
2022-08-07T09:54:22.387Z,8.668592
2022-08-07T09:55:29.286Z,8.668604
2022-08-07T09:56:34.009Z,8.668750
2022-08-07T09:57:23.560Z,8.668653
2022-08-07T09:58:32.271Z,8.668510
2022-08-07T09:59:25.890Z,8.668586
2022-08-07T10:00:29.928Z,8.668443
2022-08-07T10:01:51.244Z,8.668475
2022-08-07T10:02:29.461Z,8.668560
2022-08-07T10:04:05.331Z,8.668538
2022-08-07T10:04:28.276Z,8.668564
2022-08-07T10:05:59.226Z,8.668637
2022-08-07T10:06:24.630Z,8.668576
2022-08-07T10:07:25.785Z,8.668505
2022-08-07T10:08:22.173Z,8.668415
2022-08-07T10:09:34.287Z,8.668523
2022-08-07T10:10:23.121Z,8.668538
2022-08-07T10:12:01.331Z,8.668557
2022-08-07T10:12:26.510Z,8.668577
2022-08-07T10:13:55.571Z,8.668498
2022-08-07T10:14:30.421Z,8.668565
2022-08-07T10:15:23.053Z,8.668591
2022-08-07T10:16:22.010Z,8.668610
2022-08-07T10:17:22.539Z,8.668573
2022-08-07T10:18:21.972Z,8.668521
2022-08-07T10:19:22.079Z,8.668632
2022-08-07T10:20:30.314Z,8.668568
2022-08-07T10:22:14.235Z,8.668574
2022-08-07T10:22:33.300Z,8.668542
2022-08-07T10:24:05.380Z,8.668584
2022-08-07T10:24:22.881Z,8.668591
2022-08-07T10:25:22.779Z,8.668552
2022-08-07T10:26:24.689Z,8.668533
2022-08-07T10:27:21.891Z,8.668641
2022-08-07T10:28:21.872Z,8.668575
2022-08-07T10:29:21.875Z,8.668583
2022-08-07T10:30:21.762Z,8.668612
2022-08-07T10:31:21.816Z,8.668593
2022-08-07T10:32:51.402Z,8.668570
2022-08-07T10:33:23.660Z,8.668560
2022-08-07T10:34:27.215Z,8.668573
2022-08-07T10:35:25.578Z,8.668562
2022-08-07T10:36:29.765Z,8.668510
2022-08-07T10:37:48.248Z,8.668497
2022-08-07T10:38:48.532Z,8.668485
2022-08-07T10:39:22.689Z,8.668590
2022-08-07T10:40:21.621Z,8.668525
2022-08-07T10:41:51.608Z,8.668549
2022-08-07T10:42:31.287Z,8.668507
2022-08-07T10:43:34.094Z,8.668541
2022-08-07T10:44:33.903Z,8.668453
2022-08-07T10:45:45.198Z,8.668517
2022-08-07T10:46:22.460Z,8.668606
2022-08-07T10:47:26.795Z,8.668626
2022-08-07T10:48:22.418Z,8.668612
2022-08-07T10:49:24.569Z,8.668597
2022-08-07T10:50:26.495Z,8.668584
2022-08-07T10:51:57.547Z,8.668588
2022-08-07T10:52:22.347Z,8.668661
2022-08-07T10:53:22.597Z,8.668599
2022-08-07T10:54:21.754Z,8.668565
2022-08-07T10:55:37.270Z,8.668508
2022-08-07T10:56:31.536Z,8.668596
2022-08-07T10:57:22.267Z,8.668590
2022-08-07T10:58:31.913Z,8.668575
2022-08-07T10:59:22.260Z,8.668578
2022-08-07T11:00:39.344Z,8.668530
2022-08-07T11:01:23.712Z,8.668579
2022-08-07T11:02:33.186Z,8.668519
2022-08-07T11:03:22.167Z,8.668538
2022-08-07T11:04:32.148Z,8.668466
2022-08-07T11:05:24.269Z,8.668475
2022-08-07T11:06:22.178Z,8.668473
2022-08-07T11:07:24.668Z,8.668535
2022-08-07T11:08:22.183Z,8.668447
2022-08-07T11:10:08.576Z,8.668565
2022-08-07T11:10:22.011Z,8.668538
2022-08-07T11:11:22.127Z,8.668619
2022-08-07T11:12:32.196Z,8.668656
2022-08-07T11:14:43.468Z,8.668638
2022-08-07T11:14:44.399Z,8.668635
2022-08-07T11:15:22.034Z,8.668623
2022-08-07T11:16:21.945Z,8.668601
2022-08-07T11:17:23.211Z,8.668584
2022-08-07T11:18:21.875Z,8.668596
2022-08-07T11:19:21.522Z,8.668655
2022-08-07T11:20:24.355Z,8.668670
2022-08-07T11:21:20.973Z,8.668642
2022-08-07T11:22:33.309Z,8.668643
2022-08-07T11:23:36.429Z,8.668587
2022-08-07T11:24:21.794Z,8.668660
2022-08-07T11:25:21.823Z,8.668530
2022-08-07T11:26:20.736Z,8.668630
2022-08-07T11:27:20.838Z,8.668627
2022-08-07T11:28:21.804Z,8.668604
2022-08-07T11:29:41.219Z,8.668619
2022-08-07T11:30:41.639Z,8.668614
2022-08-07T11:31:21.629Z,8.668651
2022-08-07T11:32:25.950Z,8.668653
2022-08-07T11:33:54.116Z,8.668641
2022-08-07T11:34:21.685Z,8.668653
2022-08-07T11:35:25.206Z,8.668668
2022-08-07T11:36:25.348Z,8.668657
2022-08-07T11:37:24.357Z,8.668625
2022-08-07T11:38:21.609Z,8.668605
2022-08-07T11:39:21.628Z,8.668641
2022-08-07T11:40:20.516Z,8.668596
2022-08-07T11:41:29.610Z,8.668548
2022-08-07T11:42:22.320Z,8.668595
2022-08-07T11:43:29.537Z,8.668571
2022-08-07T11:44:21.407Z,8.668565